createdAt,value
2022-09-23T00:01:06.401Z,95739.66
2022-09-23T00:03:33.617Z,95733.72
2022-09-23T00:06:06.709Z,95732.41
2022-09-23T00:08:33.632Z,95730.00
2022-09-23T00:11:11.433Z,95732.19
2022-09-23T00:13:39.639Z,95738.94
2022-09-23T00:16:10.124Z,95729.53
2022-09-23T00:18:36.660Z,95726.84
2022-09-23T00:21:09.416Z,95722.81
2022-09-23T00:23:36.382Z,95728.50
2022-09-23T00:26:05.374Z,95726.34
2022-09-23T00:28:32.565Z,95720.16
2022-09-23T00:31:04.202Z,95730.72
2022-09-23T00:33:30.854Z,95717.50
2022-09-23T00:36:02.368Z,95727.50
2022-09-23T00:38:29.364Z,95717.28
2022-09-23T00:40:56.618Z,95714.56
2022-09-23T00:43:38.122Z,95715.13
2022-09-23T00:46:07.984Z,95712.44
2022-09-23T00:48:36.715Z,95707.03
2022-09-23T00:51:05.117Z,95705.47
2022-09-23T00:53:31.642Z,95705.47
2022-09-23T00:56:02.753Z,95700.06
2022-09-23T00:58:32.781Z,95704.63
2022-09-23T01:01:01.311Z,95703.03
2022-09-23T01:03:28.067Z,95702.22
2022-09-23T01:05:55.685Z,95697.66
2022-09-23T01:08:23.826Z,95696.81
2022-09-23T01:11:03.090Z,95693.97
2022-09-23T01:14:01.893Z,95685.00
2022-09-23T01:16:38.079Z,95695.81
2022-09-23T01:19:22.655Z,95690.97
2022-09-23T01:22:08.736Z,95684.53
2022-09-23T01:25:07.297Z,95681.09
2022-09-23T01:27:51.541Z,95683.81
2022-09-23T01:30:37.661Z,95675.50
2022-09-23T01:33:24.130Z,95684.44
2022-09-23T01:36:27.633Z,95680.16
2022-09-23T01:39:12.091Z,95682.63
2022-09-23T01:41:53.567Z,95682.41
2022-09-23T01:44:30.449Z,95676.78
2022-09-23T01:47:01.738Z,95679.22
2022-09-23T01:49:48.649Z,95677.38
2022-09-23T01:52:28.144Z,95671.75
2022-09-23T01:55:16.141Z,95672.31
2022-09-23T01:58:05.438Z,95670.50
2022-09-23T02:00:39.243Z,95673.72
2022-09-23T02:03:15.066Z,95672.41
2022-09-23T02:05:47.735Z,95670.25
2022-09-23T02:08:19.699Z,95671.63
2022-09-23T02:10:49.149Z,95669.50
2022-09-23T02:13:23.297Z,95671.94
2022-09-23T02:15:59.202Z,95670.59
2022-09-23T02:18:31.588Z,95664.69
2022-09-23T02:21:04.737Z,95668.75
2022-09-23T02:23:41.947Z,95665.81
2022-09-23T02:26:18.830Z,95660.19
2022-09-23T02:29:05.201Z,95662.38
2022-09-23T02:31:55.852Z,95669.38
2022-09-23T02:34:45.398Z,95669.16
2022-09-23T02:37:17.963Z,95665.13
2022-09-23T02:40:22.804Z,95662.19
2022-09-23T02:43:15.610Z,95660.31
2022-09-23T02:45:42.378Z,95664.91
2022-09-23T02:48:14.345Z,95661.94
2022-09-23T02:50:41.252Z,95664.13
2022-09-23T02:53:08.050Z,95667.09
2022-09-23T02:55:34.699Z,95664.97
2022-09-23T02:58:02.724Z,95666.06
2022-09-23T03:00:42.261Z,95654.75
2022-09-23T03:03:33.263Z,95656.91
2022-09-23T03:06:05.017Z,95655.28
2022-09-23T03:08:47.612Z,95652.09
2022-09-23T03:11:15.390Z,95643.22
2022-09-23T03:13:53.909Z,95635.69
2022-09-23T03:16:41.922Z,95638.09
2022-09-23T03:19:26.632Z,95634.09
2022-09-23T03:22:06.804Z,95638.16
2022-09-23T03:24:35.936Z,95643.00
2022-09-23T03:27:08.470Z,95642.50
2022-09-23T03:29:35.529Z,95645.19
2022-09-23T03:32:02.768Z,95648.16
2022-09-23T03:34:33.868Z,95640.91
2022-09-23T03:37:14.245Z,95641.16
2022-09-23T03:39:44.428Z,95636.03
2022-09-23T03:42:19.375Z,95638.22
2022-09-23T03:44:47.162Z,95639.28
2022-09-23T03:47:15.679Z,95636.06
2022-09-23T03:49:46.349Z,95646.84
2022-09-23T03:52:12.822Z,95642.53
2022-09-23T03:54:39.435Z,95640.09
2022-09-23T03:57:06.051Z,95643.06
2022-09-23T03:59:32.792Z,95636.06
2022-09-23T04:02:00.313Z,95631.78
2022-09-23T04:04:27.399Z,95638.50
2022-09-23T04:06:55.674Z,95642.28
2022-09-23T04:09:22.867Z,95637.19
2022-09-23T04:11:50.573Z,95631.25
2022-09-23T04:14:18.583Z,95632.63
2022-09-23T04:16:45.648Z,95632.13
2022-09-23T04:19:14.063Z,95624.56
2022-09-23T04:21:41.311Z,95629.72
2022-09-23T04:24:09.431Z,95631.03
2022-09-23T04:26:37.771Z,95635.63
2022-09-23T04:29:05.623Z,95630.00
2022-09-23T04:31:33.970Z,95632.16
2022-09-23T04:34:01.059Z,95633.50
2022-09-23T04:36:27.789Z,95628.41
2022-09-23T04:38:54.296Z,95634.06
2022-09-23T04:41:20.905Z,95635.13
2022-09-23T04:43:47.498Z,95625.47
2022-09-23T04:46:16.082Z,95633.81
2022-09-23T04:48:43.336Z,95632.97
2022-09-23T04:51:19.030Z,95631.38
2022-09-23T04:53:47.299Z,95626.00
2022-09-23T04:56:18.908Z,95632.19
2022-09-23T04:58:45.957Z,95634.59
2022-09-23T05:01:19.456Z,95636.22
2022-09-23T05:03:46.624Z,95631.34
2022-09-23T05:06:14.574Z,95631.34
2022-09-23T05:08:46.360Z,95631.09
2022-09-23T05:11:12.824Z,95629.19
2022-09-23T05:13:39.290Z,95630.53
2022-09-23T05:16:08.901Z,95636.72
2022-09-23T05:18:37.271Z,95627.59
2022-09-23T05:21:04.197Z,95638.06
2022-09-23T05:23:30.925Z,95635.91
2022-09-23T05:26:02.674Z,95639.09
2022-09-23T05:28:30.870Z,95633.22
2022-09-23T05:31:04.431Z,95643.72
2022-09-23T05:33:32.288Z,95643.41
2022-09-23T05:35:59.000Z,95643.66
2022-09-23T05:38:25.690Z,95642.59
2022-09-23T05:40:59.972Z,95646.91
2022-09-23T05:43:27.032Z,95640.97
2022-09-23T05:46:07.218Z,95638.53
2022-09-23T05:48:36.458Z,95639.59
2022-09-23T05:51:04.145Z,95633.94
2022-09-23T05:53:31.047Z,95638.47
2022-09-23T05:55:58.066Z,95643.59
2022-09-23T05:58:25.247Z,95638.19
2022-09-23T06:00:52.029Z,95633.31
2022-09-23T06:03:20.548Z,95637.56
2022-09-23T06:05:47.611Z,95638.34
2022-09-23T06:08:14.839Z,95640.72
2022-09-23T06:10:47.869Z,95640.69
2022-09-23T06:13:16.244Z,95632.03
2022-09-23T06:15:43.112Z,95640.31
2022-09-23T06:18:10.292Z,95643.78
2022-09-23T06:20:37.490Z,95634.59
2022-09-23T06:23:11.197Z,95637.75
2022-09-23T06:25:38.226Z,95636.06
2022-09-23T06:28:05.400Z,95629.00
2022-09-23T06:30:31.870Z,95631.88
2022-09-23T06:32:58.535Z,95634.78
2022-09-23T06:35:27.715Z,95627.66
2022-09-23T06:37:55.066Z,95629.75
2022-09-23T06:40:22.312Z,95626.44
2022-09-23T06:42:56.578Z,95632.00
2022-09-23T06:45:23.055Z,95628.38
2022-09-23T06:47:54.071Z,95634.25
2022-09-23T06:50:20.598Z,95637.13
2022-09-23T06:52:56.729Z,95634.59
2022-09-23T06:55:24.172Z,95639.34
2022-09-23T06:57:51.089Z,95628.75
2022-09-23T07:00:18.123Z,95634.78
2022-09-23T07:02:45.200Z,95637.38
2022-09-23T07:05:12.200Z,95631.81
2022-09-23T07:07:38.955Z,95632.78
2022-09-23T07:10:06.675Z,95633.19
2022-09-23T07:12:33.999Z,95634.94
2022-09-23T07:15:01.037Z,95637.50
2022-09-23T07:17:27.850Z,95639.72
2022-09-23T07:19:54.350Z,95639.78
2022-09-23T07:22:25.212Z,95639.31
2022-09-23T07:24:52.512Z,95636.16
2022-09-23T07:27:19.014Z,95636.78
2022-09-23T07:29:52.189Z,95633.31
2022-09-23T07:32:20.383Z,95639.84
2022-09-23T07:34:47.029Z,95635.81
2022-09-23T07:37:17.906Z,95639.63
2022-09-23T07:39:45.035Z,95631.00
2022-09-23T07:42:11.713Z,95634.31
2022-09-23T07:44:38.907Z,95634.31
2022-09-23T07:47:05.644Z,95639.19
2022-09-23T07:49:34.874Z,95635.22
2022-09-23T07:52:01.608Z,95637.38
2022-09-23T07:54:28.073Z,95635.75
2022-09-23T07:56:54.681Z,95636.31
2022-09-23T07:59:21.311Z,95639.06
2022-09-23T08:01:50.308Z,95645.38
2022-09-23T08:04:26.056Z,95636.19
2022-09-23T08:06:55.751Z,95637.34
2022-09-23T08:09:25.440Z,95641.41
2022-09-23T08:11:52.487Z,95641.50
2022-09-23T08:14:19.770Z,95643.44
2022-09-23T08:16:46.548Z,95640.75
2022-09-23T08:19:13.431Z,95645.16
2022-09-23T08:21:40.122Z,95644.69
2022-09-23T08:24:13.656Z,95640.91
2022-09-23T08:26:40.364Z,95646.38
2022-09-23T08:29:06.968Z,95643.69
2022-09-23T08:31:33.491Z,95642.63
2022-09-23T08:34:00.581Z,95640.13
2022-09-23T08:36:27.610Z,95639.66
2022-09-23T08:38:54.193Z,95647.69
2022-09-23T08:41:45.742Z,95642.88
2022-09-23T08:44:35.007Z,95636.97
2022-09-23T08:47:16.225Z,95635.56
2022-09-23T08:49:55.186Z,95636.69
2022-09-23T08:52:36.517Z,95630.63
2022-09-23T08:55:04.153Z,95635.88
2022-09-23T08:57:41.204Z,95626.44
2022-09-23T09:00:16.951Z,95631.09
2022-09-23T09:02:43.660Z,95621.00
2022-09-23T09:05:12.701Z,95624.50
2022-09-23T09:07:41.363Z,95620.97
2022-09-23T09:10:23.463Z,95630.72
2022-09-23T09:12:59.918Z,95628.03
2022-09-23T09:15:28.515Z,95620.13
2022-09-23T09:18:06.041Z,95619.31
2022-09-23T09:20:40.393Z,95620.88
2022-09-23T09:23:21.024Z,95610.59
2022-09-23T09:26:11.175Z,95603.19
2022-09-23T09:28:42.535Z,95602.34
2022-09-23T09:31:29.290Z,95599.94
2022-09-23T09:34:03.254Z,95597.47
2022-09-23T09:36:40.113Z,95596.63
2022-09-23T09:39:12.543Z,95593.72
2022-09-23T09:41:45.112Z,95591.28
2022-09-23T09:44:42.433Z,95584.16
2022-09-23T09:47:26.555Z,95585.25
2022-09-23T09:49:57.412Z,95582.91
2022-09-23T09:52:26.229Z,95575.13
2022-09-23T09:54:53.157Z,95576.00
2022-09-23T09:57:33.699Z,95572.06
2022-09-23T10:00:40.407Z,95577.34
2022-09-23T10:03:13.078Z,95570.78
2022-09-23T10:05:45.780Z,95566.50
2022-09-23T10:08:26.377Z,95570.72
2022-09-23T10:10:55.460Z,95559.72
2022-09-23T10:13:22.512Z,95555.41
2022-09-23T10:15:49.075Z,95562.72
2022-09-23T10:18:28.310Z,95561.00
2022-09-23T10:21:01.841Z,95562.50
2022-09-23T10:23:30.297Z,95551.91
2022-09-23T10:26:06.442Z,95549.09
2022-09-23T10:28:45.898Z,95543.97
2022-09-23T10:31:33.209Z,95544.97
2022-09-23T10:34:20.500Z,95548.84
2022-09-23T10:36:55.600Z,95540.97
2022-09-23T10:39:22.144Z,95544.47
2022-09-23T10:42:22.776Z,95544.34
2022-09-23T10:45:17.924Z,95539.63
2022-09-23T10:48:19.939Z,95538.34
2022-09-23T10:50:49.972Z,95541.03
2022-09-23T10:53:45.358Z,95536.56
2022-09-23T10:56:33.773Z,95530.16
2022-09-23T10:59:14.498Z,95524.94
2022-09-23T11:01:48.487Z,95524.34
2022-09-23T11:04:37.103Z,95519.47
2022-09-23T11:07:09.364Z,95511.19
2022-09-23T11:09:53.692Z,95509.16
2022-09-23T11:12:23.246Z,95511.28
2022-09-23T11:15:14.505Z,95515.88
2022-09-23T11:17:59.194Z,95506.59
2022-09-23T11:20:28.745Z,95504.81
2022-09-23T11:23:07.337Z,95503.03
2022-09-23T11:26:20.686Z,95493.84
2022-09-23T11:29:00.257Z,95495.69
2022-09-23T11:31:32.514Z,95497.28
2022-09-23T11:34:21.861Z,95488.69
2022-09-23T11:37:03.741Z,95483.41
2022-09-23T11:39:41.214Z,95482.78
2022-09-23T11:42:17.424Z,95476.22
2022-09-23T11:44:50.273Z,95484.59
2022-09-23T11:47:25.953Z,95477.66
2022-09-23T11:50:09.995Z,95478.59
2022-09-23T11:52:48.207Z,95477.16
2022-09-23T11:55:21.351Z,95468.25
2022-09-23T11:57:53.051Z,95469.22
2022-09-23T12:00:25.009Z,95468.19
2022-09-23T12:03:06.566Z,95457.44
2022-09-23T12:05:39.086Z,95457.53
2022-09-23T12:08:05.685Z,95456.88
2022-09-23T12:11:03.095Z,95464.16
2022-09-23T12:13:48.372Z,95453.72
2022-09-23T12:16:39.822Z,95450.28
2022-09-23T12:19:30.982Z,95443.31
2022-09-23T12:22:20.112Z,95449.47
2022-09-23T12:25:32.889Z,95449.47
2022-09-23T12:28:11.475Z,95440.84
2022-09-23T12:30:39.252Z,95444.88
2022-09-23T12:33:18.970Z,95439.91
2022-09-23T12:35:46.275Z,95432.59
2022-09-23T12:38:22.492Z,95429.50
2022-09-23T12:40:49.575Z,95441.31
2022-09-23T12:43:32.457Z,95425.16
2022-09-23T12:46:20.817Z,95430.66
2022-09-23T12:48:56.011Z,95427.97
2022-09-23T12:51:22.872Z,95427.22
2022-09-23T12:54:04.547Z,95419.41
2022-09-23T12:56:34.037Z,95412.78
2022-09-23T12:59:11.296Z,95411.59
2022-09-23T13:01:39.017Z,95413.63
2022-09-23T13:04:05.958Z,95399.97
2022-09-23T13:06:55.883Z,95405.88
2022-09-23T13:09:45.198Z,95401.97
2022-09-23T13:12:23.985Z,95403.97
2022-09-23T13:14:54.557Z,95396.53
2022-09-23T13:17:40.265Z,95387.94
2022-09-23T13:20:35.280Z,95380.94
2022-09-23T13:23:26.077Z,95376.66
2022-09-23T13:26:10.201Z,95381.41
2022-09-23T13:28:43.678Z,95375.13
2022-09-23T13:31:16.275Z,95376.34
2022-09-23T13:33:59.496Z,95376.34
2022-09-23T13:36:26.069Z,95373.59
2022-09-23T13:38:52.661Z,95370.47
2022-09-23T13:41:23.288Z,95374.03
2022-09-23T13:43:53.677Z,95365.03
2022-09-23T13:46:27.399Z,95365.44
2022-09-23T13:48:55.451Z,95362.28
2022-09-23T13:51:26.519Z,95363.91
2022-09-23T13:53:55.397Z,95358.50
2022-09-23T13:56:23.021Z,95358.97
2022-09-23T13:58:49.555Z,95350.72
2022-09-23T14:01:34.155Z,95355.47
2022-09-23T14:04:01.735Z,95352.03
2022-09-23T14:06:31.428Z,95342.97
2022-09-23T14:09:01.357Z,95350.50
2022-09-23T14:11:33.725Z,95342.31
2022-09-23T14:14:01.966Z,95341.09
2022-09-23T14:16:29.597Z,95338.72
2022-09-23T14:18:59.144Z,95334.41
2022-09-23T14:21:33.527Z,95332.81
2022-09-23T14:24:32.029Z,95331.97
2022-09-23T14:27:13.884Z,95333.56
2022-09-23T14:29:43.563Z,95330.06
2022-09-23T14:32:14.013Z,95323.38
2022-09-23T14:34:52.124Z,95313.16
2022-09-23T14:37:18.558Z,95323.03
2022-09-23T14:39:45.203Z,95315.50
2022-09-23T14:42:13.192Z,95314.75
2022-09-23T14:44:39.728Z,95310.00
2022-09-23T14:47:11.584Z,95315.13
2022-09-23T14:49:39.069Z,95314.69
2022-09-23T14:52:06.288Z,95319.44
2022-09-23T14:54:38.675Z,95307.63
2022-09-23T14:57:23.469Z,95306.84
2022-09-23T15:00:15.460Z,95306.41
2022-09-23T15:02:44.301Z,95310.78
2022-09-23T15:05:22.728Z,95306.09
2022-09-23T15:07:55.753Z,95306.97
2022-09-23T15:10:26.833Z,95297.19
2022-09-23T15:12:55.377Z,95296.00
2022-09-23T15:15:27.516Z,95288.09
2022-09-23T15:17:54.328Z,95300.25
2022-09-23T15:20:26.404Z,95297.88
2022-09-23T15:22:54.973Z,95299.06
2022-09-23T15:25:21.632Z,95287.94
2022-09-23T15:28:24.862Z,95286.97
2022-09-23T15:30:51.433Z,95293.94
2022-09-23T15:33:18.029Z,95289.94
2022-09-23T15:35:48.656Z,95292.19
2022-09-23T15:38:15.272Z,95289.72
2022-09-23T15:40:42.043Z,95288.84
2022-09-23T15:43:20.501Z,95297.84
2022-09-23T15:45:50.482Z,95284.41
2022-09-23T15:48:19.987Z,95283.16
2022-09-23T15:50:46.724Z,95276.75
2022-09-23T15:53:15.851Z,95278.63
2022-09-23T15:55:42.458Z,95280.13
2022-09-23T15:58:08.937Z,95279.69
2022-09-23T16:00:35.704Z,95277.22
2022-09-23T16:03:02.366Z,95274.81
2022-09-23T16:05:32.946Z,95284.13
2022-09-23T16:07:59.654Z,95277.00
2022-09-23T16:10:26.700Z,95286.31
2022-09-23T16:12:55.954Z,95280.34
2022-09-23T16:15:24.109Z,95280.63
2022-09-23T16:17:50.533Z,95282.81
2022-09-23T16:20:17.814Z,95286.34
2022-09-23T16:22:58.941Z,95278.00
2022-09-23T16:25:28.276Z,95290.38
2022-09-23T16:27:58.649Z,95291.03
2022-09-23T16:30:26.967Z,95298.28
2022-09-23T16:32:53.688Z,95295.72
2022-09-23T16:35:22.336Z,95298.28
2022-09-23T16:37:49.346Z,95301.66
2022-09-23T16:40:18.775Z,95304.97
2022-09-23T16:42:45.647Z,95300.88
2022-09-23T16:45:16.699Z,95309.38
2022-09-23T16:47:47.654Z,95307.19
2022-09-23T16:50:17.143Z,95305.84
2022-09-23T16:52:44.153Z,95311.56
2022-09-23T16:55:12.712Z,95304.69
2022-09-23T16:57:40.335Z,95299.38
2022-09-23T17:00:11.881Z,95300.34
2022-09-23T17:02:38.626Z,95291.88
2022-09-23T17:05:05.636Z,95294.38
2022-09-23T17:07:32.289Z,95300.78
2022-09-23T17:09:58.916Z,95302.50
2022-09-23T17:12:31.606Z,95295.97
2022-09-23T17:14:58.143Z,95302.00
2022-09-23T17:17:24.755Z,95296.22
2022-09-23T17:19:51.264Z,95295.97
2022-09-23T17:22:17.819Z,95296.50
2022-09-23T17:24:44.344Z,95301.34
2022-09-23T17:27:10.989Z,95307.81
2022-09-23T17:29:37.530Z,95304.44
2022-09-23T17:32:04.084Z,95301.88
2022-09-23T17:34:30.732Z,95299.72
2022-09-23T17:36:57.280Z,95306.97
2022-09-23T17:39:23.821Z,95309.16
2022-09-23T17:41:50.436Z,95307.38
2022-09-23T17:44:16.891Z,95313.78
2022-09-23T17:46:43.447Z,95320.19
2022-09-23T17:49:10.050Z,95323.03
2022-09-23T17:51:36.687Z,95321.25
2022-09-23T17:54:03.263Z,95317.06
2022-09-23T17:56:29.748Z,95317.97
2022-09-23T17:59:00.006Z,95320.84
2022-09-23T18:01:26.916Z,95324.19
2022-09-23T18:03:55.120Z,95320.09
2022-09-23T18:06:23.104Z,95324.31
2022-09-23T18:08:51.535Z,95317.38
2022-09-23T18:11:21.691Z,95321.94
2022-09-23T18:13:51.174Z,95318.63
2022-09-23T18:16:18.882Z,95322.38
2022-09-23T18:18:59.419Z,95321.34
2022-09-23T18:21:29.632Z,95326.59
2022-09-23T18:24:06.523Z,95324.88
2022-09-23T18:26:43.455Z,95323.06
2022-09-23T18:29:10.490Z,95329.53
2022-09-23T18:31:38.629Z,95322.38
2022-09-23T18:34:07.005Z,95334.69
2022-09-23T18:36:34.410Z,95332.13
2022-09-23T18:39:01.446Z,95337.31
2022-09-23T18:41:28.451Z,95340.25
2022-09-23T18:43:55.099Z,95335.03
2022-09-23T18:46:26.724Z,95340.22
2022-09-23T18:48:53.345Z,95339.00
2022-09-23T18:51:22.282Z,95343.06
2022-09-23T18:53:48.768Z,95340.53
2022-09-23T18:56:18.781Z,95331.78
2022-09-23T18:58:46.338Z,95334.38
2022-09-23T19:01:12.899Z,95328.66
2022-09-23T19:03:39.559Z,95326.94
2022-09-23T19:06:21.138Z,95335.78
2022-09-23T19:08:50.923Z,95338.72
2022-09-23T19:11:17.719Z,95326.09
2022-09-23T19:13:44.277Z,95331.88
2022-09-23T19:16:16.373Z,95336.75
2022-09-23T19:18:44.702Z,95340.47
2022-09-23T19:21:12.075Z,95336.81
2022-09-23T19:23:40.394Z,95334.28
2022-09-23T19:26:09.759Z,95336.88
2022-09-23T19:28:37.499Z,95337.56
2022-09-23T19:31:14.314Z,95330.38
2022-09-23T19:33:40.952Z,95329.88
2022-09-23T19:36:07.720Z,95334.09
2022-09-23T19:38:34.345Z,95331.69
2022-09-23T19:41:07.896Z,95335.41
2022-09-23T19:43:37.638Z,95333.31
2022-09-23T19:46:05.293Z,95321.16
2022-09-23T19:48:31.806Z,95328.41
2022-09-23T19:50:59.042Z,95321.34
2022-09-23T19:53:28.139Z,95317.72
2022-09-23T19:55:54.944Z,95319.50
2022-09-23T19:58:21.609Z,95324.47
2022-09-23T20:00:48.471Z,95313.44
2022-09-23T20:03:15.038Z,95318.75
2022-09-23T20:05:41.491Z,95310.78
2022-09-23T20:08:08.077Z,95315.75
2022-09-23T20:10:34.624Z,95312.88
2022-09-23T20:13:01.151Z,95311.16
2022-09-23T20:15:27.701Z,95320.00
2022-09-23T20:17:54.185Z,95310.88
2022-09-23T20:20:20.812Z,95321.63
2022-09-23T20:22:50.126Z,95311.41
2022-09-23T20:25:16.685Z,95309.66
2022-09-23T20:27:43.156Z,95317.69
2022-09-23T20:30:10.262Z,95319.13
2022-09-23T20:32:36.804Z,95307.28
2022-09-23T20:35:04.064Z,95308.31
2022-09-23T20:37:30.627Z,95312.47
2022-09-23T20:39:57.161Z,95308.47
2022-09-23T20:42:23.760Z,95307.22
2022-09-23T20:44:50.371Z,95306.72
2022-09-23T20:47:18.253Z,95304.97
2022-09-23T20:49:45.976Z,95296.34
2022-09-23T20:52:15.379Z,95300.53
2022-09-23T20:54:42.392Z,95296.53
2022-09-23T20:57:11.236Z,95303.09
2022-09-23T20:59:38.756Z,95299.44
2022-09-23T21:02:05.733Z,95292.72
2022-09-23T21:04:32.336Z,95292.25
2022-09-23T21:06:58.890Z,95287.16
2022-09-23T21:09:26.481Z,95283.97
2022-09-23T21:11:53.940Z,95291.63
2022-09-23T21:14:20.518Z,95281.09
2022-09-23T21:16:47.063Z,95287.66
2022-09-23T21:19:13.698Z,95286.84
2022-09-23T21:21:40.158Z,95289.09
2022-09-23T21:24:38.784Z,95285.59
2022-09-23T21:26:53.308Z,95285.09
2022-09-23T21:29:19.883Z,95281.59
2022-09-23T21:31:46.484Z,95276.94
2022-09-23T21:34:13.316Z,95274.53
2022-09-23T21:36:41.803Z,95281.59
2022-09-23T21:39:09.361Z,95282.38
2022-09-23T21:41:36.648Z,95282.38
2022-09-23T21:44:03.988Z,95280.47
2022-09-23T21:46:31.716Z,95273.13
2022-09-23T21:48:58.288Z,95279.34
2022-09-23T21:51:29.500Z,95275.50
2022-09-23T21:53:58.198Z,95280.63
2022-09-23T21:56:27.012Z,95281.09
2022-09-23T21:58:55.053Z,95282.69
2022-09-23T22:01:24.601Z,95284.28
2022-09-23T22:03:53.741Z,95276.59
2022-09-23T22:06:29.437Z,95273.56
2022-09-23T22:08:58.756Z,95279.47
2022-09-23T22:11:28.113Z,95269.88
2022-09-23T22:13:54.663Z,95267.94
2022-09-23T22:16:21.167Z,95271.44
2022-09-23T22:18:50.941Z,95268.25
2022-09-23T22:21:17.941Z,95270.97
2022-09-23T22:23:44.534Z,95269.88
2022-09-23T22:26:11.098Z,95262.03
2022-09-23T22:28:37.653Z,95250.34
2022-09-23T22:31:04.264Z,95245.72
2022-09-23T22:33:30.834Z,95243.81
2022-09-23T22:36:03.511Z,95252.28
2022-09-23T22:38:30.086Z,95245.72
2022-09-23T22:40:57.434Z,95246.19
2022-09-23T22:43:24.049Z,95255.94
2022-09-23T22:45:50.702Z,95259.47
2022-09-23T22:48:17.516Z,95253.69
2022-09-23T22:50:44.020Z,95248.72
2022-09-23T22:53:10.566Z,95250.31
2022-09-23T22:55:37.176Z,95239.91
2022-09-23T22:58:27.654Z,95237.34
2022-09-23T23:00:51.500Z,95228.06
2022-09-23T23:03:18.047Z,95231.25
2022-09-23T23:05:44.627Z,95239.88
2022-09-23T23:08:11.274Z,95229.47
2022-09-23T23:10:37.843Z,95232.19
2022-09-23T23:13:04.279Z,95245.47
2022-09-23T23:15:30.830Z,95236.50
2022-09-23T23:17:57.328Z,95232.66
2022-09-23T23:20:23.831Z,95234.25
2022-09-23T23:22:50.414Z,95227.22
2022-09-23T23:25:16.957Z,95217.94
2022-09-23T23:27:43.574Z,95216.81
2022-09-23T23:30:10.615Z,95218.41
2022-09-23T23:32:37.296Z,95218.06
2022-09-23T23:35:04.100Z,95213.47
2022-09-23T23:37:30.738Z,95211.19
2022-09-23T23:39:57.329Z,95212.78
2022-09-23T23:42:23.886Z,95228.75
2022-09-23T23:44:50.532Z,95222.19
2022-09-23T23:47:17.038Z,95220.75
2022-09-23T23:49:43.581Z,95220.75
2022-09-23T23:52:10.246Z,95221.22
2022-09-23T23:54:36.760Z,95212.72
2022-09-23T23:57:03.445Z,95206.97
2022-09-23T23:59:29.975Z,95206.97
